UAL248 KDFW-KDEN
Flight info
| Callsign | UAL248 |
|---|---|
| Flight time | N/A |
| Altitude | 36000 |
| Route | LOWGN8 ROLLS TOTOE HALEN NIIXX4 |
| Aircraft | A319/M-SDE3FGHIRWY/LB1 |
Departure
| Time | 2026-05-05 22:13 |
|---|---|
| Airport | Dallas Fort Worth International Airport (KDFW) |
Arrival
| Time | N/A |
|---|---|
| Airport | Denver International Airport (KDEN) |
| Time | Latitude | Longitude | Altitude | Speed | Heading |
|---|---|---|---|---|---|
| 2026-05-05 21:52 | 32.89308 | -97.03672 | 598 ft | 0 kts | 224° |
| 2026-05-05 22:01 | 32.89309 | -97.03671 | 598 ft | 1 kts | 224° |
| 2026-05-05 22:02 | 32.89327 | -97.03652 | 597 ft | 4 kts | 211° |
| 2026-05-05 22:02 | 32.89350 | -97.03643 | 598 ft | 4 kts | 167° |
| 2026-05-05 22:02 | 32.89370 | -97.03657 | 598 ft | 4 kts | 130° |
| 2026-05-05 22:02 | 32.89381 | -97.03683 | 598 ft | 4 kts | 95° |
| 2026-05-05 22:03 | 32.89382 | -97.03710 | 598 ft | 1 kts | 89° |
| 2026-05-05 22:04 | 32.89382 | -97.03697 | 598 ft | 3 kts | 89° |
| 2026-05-05 22:05 | 32.89380 | -97.03658 | 598 ft | 6 kts | 95° |
| 2026-05-05 22:05 | 32.89380 | -97.03594 | 598 ft | 9 kts | 90° |
| 2026-05-05 22:05 | 32.89380 | -97.03513 | 598 ft | 10 kts | 90° |
| 2026-05-05 22:05 | 32.89380 | -97.03429 | 598 ft | 10 kts | 90° |
| 2026-05-05 22:06 | 32.89377 | -97.03344 | 598 ft | 10 kts | 106° |
| 2026-05-05 22:06 | 32.89315 | -97.03319 | 598 ft | 10 kts | 180° |
| 2026-05-05 22:06 | 32.89238 | -97.03319 | 598 ft | 12 kts | 180° |
| 2026-05-05 22:06 | 32.89144 | -97.03319 | 598 ft | 15 kts | 180° |
| 2026-05-05 22:07 | 32.89034 | -97.03319 | 598 ft | 17 kts | 180° |
| 2026-05-05 22:07 | 32.88915 | -97.03320 | 598 ft | 18 kts | 180° |
| 2026-05-05 22:07 | 32.88788 | -97.03321 | 598 ft | 19 kts | 181° |
| 2026-05-05 22:07 | 32.88655 | -97.03321 | 598 ft | 20 kts | 180° |
| 2026-05-05 22:08 | 32.88603 | -97.03432 | 598 ft | 18 kts | 270° |
| 2026-05-05 22:08 | 32.88603 | -97.03588 | 598 ft | 20 kts | 270° |
| 2026-05-05 22:08 | 32.88603 | -97.03758 | 598 ft | 21 kts | 270° |
| 2026-05-05 22:08 | 32.88604 | -97.03943 | 598 ft | 23 kts | 270° |
| 2026-05-05 22:09 | 32.88605 | -97.04144 | 598 ft | 25 kts | 272° |
| 2026-05-05 22:09 | 32.88605 | -97.04362 | 598 ft | 27 kts | 270° |
| 2026-05-05 22:09 | 32.88607 | -97.04580 | 598 ft | 25 kts | 270° |
| 2026-05-05 22:09 | 32.88607 | -97.04751 | 598 ft | 14 kts | 255° |
| 2026-05-05 22:10 | 32.88518 | -97.04782 | 598 ft | 14 kts | 201° |
| 2026-05-05 22:10 | 32.88417 | -97.04809 | 598 ft | 16 kts | 178° |
| 2026-05-05 22:10 | 32.88305 | -97.04809 | 598 ft | 16 kts | 180° |
| 2026-05-05 22:10 | 32.88188 | -97.04808 | 598 ft | 17 kts | 180° |
| 2026-05-05 22:11 | 32.88063 | -97.04810 | 598 ft | 18 kts | 180° |
| 2026-05-05 22:11 | 32.87938 | -97.04811 | 598 ft | 15 kts | 187° |
| 2026-05-05 22:11 | 32.87910 | -97.04908 | 598 ft | 14 kts | 270° |
| 2026-05-05 22:11 | 32.87911 | -97.04999 | 598 ft | 10 kts | 270° |
| 2026-05-05 22:12 | 32.87912 | -97.05078 | 598 ft | 8 kts | 281° |
| 2026-05-05 22:12 | 32.88024 | -97.05093 | 598 ft | 40 kts | 0° |
| 2026-05-05 22:12 | 32.88511 | -97.05091 | 598 ft | 98 kts | 360° |
| 2026-05-05 22:12 | 32.89371 | -97.05087 | 598 ft | 147 kts | 0° |
| 2026-05-05 22:13 | 32.90532 | -97.05087 | 698 ft | 177 kts | 356° |
| 2026-05-05 22:13 | 32.91734 | -97.05092 | 1265 ft | 172 kts | 353° |
| 2026-05-05 22:13 | 32.92935 | -97.05117 | 1785 ft | 172 kts | 354° |
| 2026-05-05 22:13 | 32.94137 | -97.05147 | 2291 ft | 174 kts | 354° |
| 2026-05-05 22:14 | 32.95404 | -97.05178 | 2462 ft | 191 kts | 355° |
| 2026-05-05 22:14 | 32.96811 | -97.05209 | 2590 ft | 215 kts | 355° |
| 2026-05-05 22:14 | 32.98398 | -97.05239 | 2852 ft | 239 kts | 356° |
| 2026-05-05 22:14 | 33.00102 | -97.05264 | 3444 ft | 250 kts | 356° |
| 2026-05-05 22:15 | 33.01866 | -97.05285 | 4147 ft | 258 kts | 356° |
| 2026-05-05 22:15 | 33.03684 | -97.05304 | 4863 ft | 264 kts | 356° |
| 2026-05-05 22:15 | 33.05542 | -97.05321 | 5653 ft | 269 kts | 355° |
| 2026-05-05 22:15 | 33.06799 | -97.05443 | 6170 ft | 268 kts | 345° |
| 2026-05-05 22:16 | 33.08574 | -97.06078 | 6726 ft | 274 kts | 331° |
| 2026-05-05 22:16 | 33.10355 | -97.07024 | 7406 ft | 279 kts | 331° |
| 2026-05-05 22:16 | 33.12151 | -97.07972 | 8131 ft | 284 kts | 330° |
| 2026-05-05 22:16 | 33.13969 | -97.08925 | 8870 ft | 287 kts | 330° |
| 2026-05-05 22:17 | 33.15815 | -97.09888 | 9581 ft | 292 kts | 330° |
| 2026-05-05 22:17 | 33.17687 | -97.10864 | 10223 ft | 297 kts | 330° |
| 2026-05-05 22:17 | 33.19651 | -97.11896 | 10457 ft | 319 kts | 330° |
| 2026-05-05 22:17 | 33.21748 | -97.13002 | 10587 ft | 341 kts | 330° |
| 2026-05-05 22:18 | 33.23975 | -97.14156 | 10931 ft | 354 kts | 330° |
| 2026-05-05 22:18 | 33.26254 | -97.15320 | 11494 ft | 359 kts | 330° |
| 2026-05-05 22:18 | 33.28563 | -97.16494 | 12117 ft | 362 kts | 330° |
| 2026-05-05 22:18 | 33.30888 | -97.17680 | 12730 ft | 365 kts | 329° |
| 2026-05-05 22:19 | 33.33233 | -97.18879 | 13347 ft | 368 kts | 329° |
| 2026-05-05 22:19 | 33.35595 | -97.20092 | 13903 ft | 371 kts | 329° |
| 2026-05-05 22:19 | 33.37978 | -97.21320 | 14459 ft | 374 kts | 328° |
| 2026-05-05 22:19 | 33.40377 | -97.22555 | 15020 ft | 377 kts | 328° |
| 2026-05-05 22:20 | 33.42808 | -97.23766 | 15601 ft | 383 kts | 332° |
| 2026-05-05 22:20 | 33.45440 | -97.24540 | 16149 ft | 397 kts | 344° |